sensor_id;sensor_type;location;lat;lon;timestamp;pressure;altitude;pressure_sealevel;temperature;humidity
45763;BME280;37512;52.408;13.356;2022-09-27T00:01:50;99180.88;;;11.39;98.27
45763;BME280;37512;52.408;13.356;2022-09-27T00:06:12;99180.06;;;11.38;97.88
45763;BME280;37512;52.408;13.356;2022-09-27T00:10:14;99170.91;;;11.41;97.60
45763;BME280;37512;52.408;13.356;2022-09-27T00:14:16;99160.97;;;11.47;96.30
45763;BME280;37512;52.408;13.356;2022-09-27T00:18:18;99158.19;;;11.47;96.95
45763;BME280;37512;52.408;13.356;2022-09-27T00:22:20;99151.41;;;11.52;96.14
45763;BME280;37512;52.408;13.356;2022-09-27T00:26:22;99159.03;;;11.37;97.39
45763;BME280;37512;52.408;13.356;2022-09-27T00:30:23;99154.59;;;11.47;96.81
45763;BME280;37512;52.408;13.356;2022-09-27T00:38:30;99149.59;;;11.27;99.09
45763;BME280;37512;52.408;13.356;2022-09-27T00:42:31;99136.88;;;11.30;99.36
45763;BME280;37512;52.408;13.356;2022-09-27T00:46:46;99132.41;;;11.43;98.42
45763;BME280;37512;52.408;13.356;2022-09-27T00:50:53;99128.09;;;11.35;98.99
45763;BME280;37512;52.408;13.356;2022-09-27T00:55:02;99117.03;;;11.32;99.01
45763;BME280;37512;52.408;13.356;2022-09-27T00:59:13;99118.06;;;11.48;98.11
45763;BME280;37512;52.408;13.356;2022-09-27T01:03:25;99113.44;;;11.31;98.22
45763;BME280;37512;52.408;13.356;2022-09-27T01:07:30;99102.78;;;11.26;98.74
45763;BME280;37512;52.408;13.356;2022-09-27T01:11:55;99091.66;;;11.26;98.60
45763;BME280;37512;52.408;13.356;2022-09-27T01:16:10;99085.72;;;11.24;98.81
45763;BME280;37512;52.408;13.356;2022-09-27T01:33:43;99070.22;;;11.26;97.08
45763;BME280;37512;52.408;13.356;2022-09-27T01:38:09;99073.31;;;11.36;96.63
45763;BME280;37512;52.408;13.356;2022-09-27T01:42:31;99061.44;;;11.35;96.60
45763;BME280;37512;52.408;13.356;2022-09-27T01:46:40;99068.13;;;11.45;96.00
45763;BME280;37512;52.408;13.356;2022-09-27T01:51:34;99056.94;;;11.48;96.03
45763;BME280;37512;52.408;13.356;2022-09-27T01:55:18;99049.47;;;11.42;95.34
45763;BME280;37512;52.408;13.356;2022-09-27T01:59:36;99035.94;;;11.47;95.71
45763;BME280;37512;52.408;13.356;2022-09-27T02:03:43;99031.94;;;11.52;94.80
45763;BME280;37512;52.408;13.356;2022-09-27T02:07:53;99033.75;;;11.66;94.10
45763;BME280;37512;52.408;13.356;2022-09-27T02:12:02;99027.47;;;11.58;94.25
45763;BME280;37512;52.408;13.356;2022-09-27T02:16:18;99017.19;;;11.59;94.11
45763;BME280;37512;52.408;13.356;2022-09-27T02:20:38;99005.59;;;11.64;94.23
45763;BME280;37512;52.408;13.356;2022-09-27T02:24:47;99005.16;;;11.65;94.41
45763;BME280;37512;52.408;13.356;2022-09-27T02:28:59;98999.97;;;11.71;93.66
45763;BME280;37512;52.408;13.356;2022-09-27T02:33:06;98998.13;;;11.57;94.34
45763;BME280;37512;52.408;13.356;2022-09-27T02:37:07;98991.66;;;11.67;94.32
45763;BME280;37512;52.408;13.356;2022-09-27T02:41:20;98991.72;;;11.60;94.86
45763;BME280;37512;52.408;13.356;2022-09-27T02:45:22;98981.84;;;11.59;95.02
45763;BME280;37512;52.408;13.356;2022-09-27T03:02:26;98973.38;;;11.70;94.10
45763;BME280;37512;52.408;13.356;2022-09-27T03:06:31;98973.06;;;11.61;94.32
45763;BME280;37512;52.408;13.356;2022-09-27T03:10:33;98966.25;;;11.65;93.84
45763;BME280;37512;52.408;13.356;2022-09-27T03:14:34;98963.81;;;11.71;93.58
45763;BME280;37512;52.408;13.356;2022-09-27T03:18:36;98972.28;;;11.60;94.39
45763;BME280;37512;52.408;13.356;2022-09-27T03:22:37;98960.28;;;11.70;94.20
45763;BME280;37512;52.408;13.356;2022-09-27T03:26:40;98953.63;;;11.61;94.40
45763;BME280;37512;52.408;13.356;2022-09-27T03:30:44;98950.34;;;11.69;94.22
45763;BME280;37512;52.408;13.356;2022-09-27T03:34:46;98949.28;;;11.60;96.16
45763;BME280;37512;52.408;13.356;2022-09-27T03:38:47;98948.59;;;11.48;97.75
45763;BME280;37512;52.408;13.356;2022-09-27T03:42:48;98944.31;;;11.40;98.67
45763;BME280;37512;52.408;13.356;2022-09-27T03:46:51;98942.84;;;11.32;100.00
45763;BME280;37512;52.408;13.356;2022-09-27T03:50:52;98939.31;;;11.28;100.00
45763;BME280;37512;52.408;13.356;2022-09-27T03:54:54;98934.31;;;11.12;100.00
45763;BME280;37512;52.408;13.356;2022-09-27T03:59:02;98926.75;;;11.13;100.00
45763;BME280;37512;52.408;13.356;2022-09-27T04:03:03;98915.66;;;11.13;100.00
45763;BME280;37512;52.408;13.356;2022-09-27T04:07:05;98922.88;;;11.06;100.00
45763;BME280;37512;52.408;13.356;2022-09-27T04:11:06;98913.75;;;11.06;100.00
45763;BME280;37512;52.408;13.356;2022-09-27T04:15:08;98915.91;;;10.87;100.00
45763;BME280;37512;52.408;13.356;2022-09-27T04:19:10;98915.81;;;10.98;100.00
45763;BME280;37512;52.408;13.356;2022-09-27T04:23:12;98912.72;;;10.93;100.00
45763;BME280;37512;52.408;13.356;2022-09-27T04:27:13;98910.41;;;10.84;100.00
45763;BME280;37512;52.408;13.356;2022-09-27T04:31:16;98914.41;;;10.79;100.00
45763;BME280;37512;52.408;13.356;2022-09-27T04:35:17;98908.94;;;10.68;100.00
45763;BME280;37512;52.408;13.356;2022-09-27T04:39:37;98905.78;;;10.66;100.00
45763;BME280;37512;52.408;13.356;2022-09-27T04:43:40;98909.00;;;10.61;100.00
45763;BME280;37512;52.408;13.356;2022-09-27T04:47:46;98907.41;;;10.60;100.00
45763;BME280;37512;52.408;13.356;2022-09-27T04:51:47;98903.41;;;10.68;100.00
45763;BME280;37512;52.408;13.356;2022-09-27T04:55:51;98913.88;;;10.46;100.00
45763;BME280;37512;52.408;13.356;2022-09-27T04:59:53;98909.53;;;10.49;100.00
45763;BME280;37512;52.408;13.356;2022-09-27T05:03:54;98913.16;;;10.39;100.00
45763;BME280;37512;52.408;13.356;2022-09-27T05:07:55;98915.94;;;10.35;100.00
45763;BME280;37512;52.408;13.356;2022-09-27T05:11:57;98913.91;;;10.43;100.00
45763;BME280;37512;52.408;13.356;2022-09-27T05:16:03;98908.81;;;10.34;100.00
45763;BME280;37512;52.408;13.356;2022-09-27T05:20:05;98908.91;;;10.20;100.00
45763;BME280;37512;52.408;13.356;2022-09-27T05:24:06;98904.53;;;10.19;100.00
45763;BME280;37512;52.408;13.356;2022-09-27T05:28:08;98906.91;;;10.20;100.00
45763;BME280;37512;52.408;13.356;2022-09-27T05:32:10;98906.91;;;10.20;100.00
45763;BME280;37512;52.408;13.356;2022-09-27T05:36:11;98917.94;;;10.27;100.00
45763;BME280;37512;52.408;13.356;2022-09-27T05:40:13;98918.00;;;10.17;100.00
45763;BME280;37512;52.408;13.356;2022-09-27T05:44:35;98914.00;;;10.25;100.00
45763;BME280;37512;52.408;13.356;2022-09-27T05:48:37;98916.78;;;10.21;100.00
45763;BME280;37512;52.408;13.356;2022-09-27T05:52:38;98910.97;;;10.05;100.00
45763;BME280;37512;52.408;13.356;2022-09-27T05:56:39;98899.47;;;10.07;100.00
45763;BME280;37512;52.408;13.356;2022-09-27T06:00:42;98907.84;;;9.99;100.00
45763;BME280;37512;52.408;13.356;2022-09-27T06:04:43;98905.03;;;10.03;100.00
45763;BME280;37512;52.408;13.356;2022-09-27T06:08:45;98907.69;;;10.21;100.00
45763;BME280;37512;52.408;13.356;2022-09-27T06:12:46;98901.88;;;10.04;100.00
45763;BME280;37512;52.408;13.356;2022-09-27T06:16:48;98906.59;;;10.11;100.00
45763;BME280;37512;52.408;13.356;2022-09-27T06:20:50;98903.75;;;10.15;100.00
45763;BME280;37512;52.408;13.356;2022-09-27T06:24:51;98902.22;;;10.10;100.00
45763;BME280;37512;52.408;13.356;2022-09-27T06:28:53;98912.41;;;10.24;100.00
45763;BME280;37512;52.408;13.356;2022-09-27T06:32:59;98906.09;;;10.23;100.00
45763;BME280;37512;52.408;13.356;2022-09-27T06:37:01;98904.16;;;10.17;100.00
45763;BME280;37512;52.408;13.356;2022-09-27T06:41:04;98911.63;;;10.27;100.00
45763;BME280;37512;52.408;13.356;2022-09-27T06:45:10;98905.72;;;10.21;100.00
45763;BME280;37512;52.408;13.356;2022-09-27T06:49:12;98915.63;;;10.19;100.00
45763;BME280;37512;52.408;13.356;2022-09-27T06:53:15;98919.19;;;10.19;100.00
45763;BME280;37512;52.408;13.356;2022-09-27T06:57:17;98914.03;;;10.21;100.00
45763;BME280;37512;52.408;13.356;2022-09-27T07:01:38;98914.84;;;10.22;100.00
45763;BME280;37512;52.408;13.356;2022-09-27T07:05:40;98914.78;;;10.25;100.00
45763;BME280;37512;52.408;13.356;2022-09-27T07:09:43;98917.16;;;10.31;100.00
45763;BME280;37512;52.408;13.356;2022-09-27T07:13:44;98915.16;;;10.35;100.00
45763;BME280;37512;52.408;13.356;2022-09-27T07:17:47;98916.38;;;10.34;100.00
45763;BME280;37512;52.408;13.356;2022-09-27T07:21:50;98921.06;;;10.40;100.00
45763;BME280;37512;52.408;13.356;2022-09-27T07:25:51;98910.53;;;10.14;100.00
45763;BME280;37512;52.408;13.356;2022-09-27T07:29:52;98913.19;;;10.28;100.00
45763;BME280;37512;52.408;13.356;2022-09-27T07:33:54;98921.13;;;10.30;100.00
45763;BME280;37512;52.408;13.356;2022-09-27T07:37:56;98921.00;;;10.48;100.00
45763;BME280;37512;52.408;13.356;2022-09-27T07:41:58;98917.88;;;10.42;100.00
45763;BME280;37512;52.408;13.356;2022-09-27T07:46:00;98912.38;;;10.35;100.00
45763;BME280;37512;52.408;13.356;2022-09-27T07:50:03;98918.69;;;10.42;100.00
45763;BME280;37512;52.408;13.356;2022-09-27T07:54:05;98920.09;;;10.61;100.00
45763;BME280;37512;52.408;13.356;2022-09-27T07:58:10;98916.88;;;10.66;100.00
45763;BME280;37512;52.408;13.356;2022-09-27T08:02:16;98921.78;;;10.52;100.00
45763;BME280;37512;52.408;13.356;2022-09-27T08:06:18;98927.34;;;10.48;100.00
45763;BME280;37512;52.408;13.356;2022-09-27T08:10:19;98931.25;;;10.54;100.00
45763;BME280;37512;52.408;13.356;2022-09-27T08:14:21;98921.88;;;10.37;100.00
45763;BME280;37512;52.408;13.356;2022-09-27T08:18:23;98927.97;;;10.66;100.00
45763;BME280;37512;52.408;13.356;2022-09-27T08:22:25;98924.56;;;10.48;100.00
45763;BME280;37512;52.408;13.356;2022-09-27T08:26:27;98930.75;;;10.66;100.00
45763;BME280;37512;52.408;13.356;2022-09-27T08:30:28;98929.25;;;10.58;100.00
45763;BME280;37512;52.408;13.356;2022-09-27T08:34:32;98931.16;;;10.65;100.00
45763;BME280;37512;52.408;13.356;2022-09-27T08:38:34;98926.63;;;10.85;100.00
45763;BME280;37512;52.408;13.356;2022-09-27T08:42:45;98938.88;;;10.92;100.00
45763;BME280;37512;52.408;13.356;2022-09-27T08:46:57;98933.97;;;11.06;100.00
45763;BME280;37512;52.408;13.356;2022-09-27T08:51:01;98935.44;;;10.77;100.00
45763;BME280;37512;52.408;13.356;2022-09-27T08:55:15;98929.84;;;10.80;100.00
45763;BME280;37512;52.408;13.356;2022-09-27T08:59:23;98932.84;;;11.00;100.00
45763;BME280;37512;52.408;13.356;2022-09-27T09:03:27;98934.41;;;11.01;100.00
45763;BME280;37512;52.408;13.356;2022-09-27T09:25:44;98934.13;;;11.30;100.00
45763;BME280;37512;52.408;13.356;2022-09-27T09:30:18;98924.59;;;11.31;100.00
45763;BME280;37512;52.408;13.356;2022-09-27T09:34:31;98929.34;;;11.34;100.00
45763;BME280;37512;52.408;13.356;2022-09-27T09:47:25;98931.66;;;11.36;100.00
45763;BME280;37512;52.408;13.356;2022-09-27T09:51:59;98925.41;;;11.28;100.00
45763;BME280;37512;52.408;13.356;2022-09-27T09:56:16;98924.88;;;11.40;100.00
45763;BME280;37512;52.408;13.356;2022-09-27T10:00:20;98915.34;;;11.41;100.00
45763;BME280;37512;52.408;13.356;2022-09-27T10:04:24;98915.94;;;11.90;100.00
45763;BME280;37512;52.408;13.356;2022-09-27T10:08:28;98918.28;;;11.96;100.00
45763;BME280;37512;52.408;13.356;2022-09-27T10:12:29;98910.63;;;12.03;100.00
45763;BME280;37512;52.408;13.356;2022-09-27T10:16:31;98910.41;;;11.87;100.00
45763;BME280;37512;52.408;13.356;2022-09-27T10:20:45;98907.09;;;12.26;100.00
45763;BME280;37512;52.408;13.356;2022-09-27T10:24:55;98911.88;;;12.26;100.00
45763;BME280;37512;52.408;13.356;2022-09-27T10:28:57;98902.28;;;12.30;100.00
45763;BME280;37512;52.408;13.356;2022-09-27T10:33:02;98898.81;;;12.50;100.00
45763;BME280;37512;52.408;13.356;2022-09-27T10:37:16;98893.94;;;13.01;100.00
45763;BME280;37512;52.408;13.356;2022-09-27T10:41:44;98894.03;;;13.41;100.00
45763;BME280;37512;52.408;13.356;2022-09-27T10:45:46;98890.91;;;14.12;100.00
45763;BME280;37512;52.408;13.356;2022-09-27T10:49:48;98891.38;;;13.90;100.00
45763;BME280;37512;52.408;13.356;2022-09-27T10:53:53;98893.63;;;13.79;100.00
45763;BME280;37512;52.408;13.356;2022-09-27T10:57:58;98885.38;;;13.55;100.00
45763;BME280;37512;52.408;13.356;2022-09-27T11:02:01;98895.25;;;12.73;100.00
45763;BME280;37512;52.408;13.356;2022-09-27T11:06:27;98896.91;;;12.90;100.00
45763;BME280;37512;52.408;13.356;2022-09-27T11:10:33;98884.72;;;13.04;100.00
45763;BME280;37512;52.408;13.356;2022-09-27T11:14:38;98888.16;;;12.92;100.00
45763;BME280;37512;52.408;13.356;2022-09-27T11:27:34;98894.69;;;12.58;100.00
45763;BME280;37512;52.408;13.356;2022-09-27T11:50:31;98962.69;;;9.45;100.00
45763;BME280;37512;52.408;13.356;2022-09-27T11:58:44;98970.16;;;9.62;100.00
45763;BME280;37512;52.408;13.356;2022-09-27T12:11:40;98976.88;;;9.61;100.00
45763;BME280;37512;52.408;13.356;2022-09-27T12:15:44;98970.78;;;10.06;100.00
45763;BME280;37512;52.408;13.356;2022-09-27T12:19:53;98971.41;;;10.35;100.00
45763;BME280;37512;52.408;13.356;2022-09-27T12:23:57;98965.97;;;10.77;100.00
45763;BME280;37512;52.408;13.356;2022-09-27T12:28:13;98973.16;;;11.16;100.00
45763;BME280;37512;52.408;13.356;2022-09-27T12:32:26;98962.13;;;10.60;100.00
45763;BME280;37512;52.408;13.356;2022-09-27T12:36:33;98970.69;;;10.83;100.00
45763;BME280;37512;52.408;13.356;2022-09-27T12:40:41;98977.81;;;10.81;100.00
45763;BME280;37512;52.408;13.356;2022-09-27T12:44:45;98968.34;;;10.75;100.00
45763;BME280;37512;52.408;13.356;2022-09-27T12:53:12;98970.06;;;11.82;100.00
45763;BME280;37512;52.408;13.356;2022-09-27T13:10:39;98964.06;;;11.12;100.00
45763;BME280;37512;52.408;13.356;2022-09-27T13:15:11;98978.50;;;10.92;100.00
45763;BME280;37512;52.408;13.356;2022-09-27T13:27:41;98970.53;;;11.73;100.00
45763;BME280;37512;52.408;13.356;2022-09-27T13:40:26;98977.59;;;11.47;100.00
45763;BME280;37512;52.408;13.356;2022-09-27T13:45:01;98974.94;;;11.33;100.00
45763;BME280;37512;52.408;13.356;2022-09-27T13:49:18;98988.47;;;11.31;100.00
45763;BME280;37512;52.408;13.356;2022-09-27T13:53:28;98994.16;;;11.17;100.00
45763;BME280;37512;52.408;13.356;2022-09-27T13:57:40;98998.94;;;11.16;100.00
45763;BME280;37512;52.408;13.356;2022-09-27T14:01:54;99002.00;;;11.29;100.00
45763;BME280;37512;52.408;13.356;2022-09-27T14:06:02;99010.19;;;11.43;100.00
45763;BME280;37512;52.408;13.356;2022-09-27T14:10:13;99012.38;;;11.21;100.00
45763;BME280;37512;52.408;13.356;2022-09-27T14:14:19;99011.44;;;11.35;100.00
45763;BME280;37512;52.408;13.356;2022-09-27T14:18:23;99018.16;;;11.79;100.00
45763;BME280;37512;52.408;13.356;2022-09-27T14:22:25;99024.59;;;11.69;100.00
45763;BME280;37512;52.408;13.356;2022-09-27T14:26:26;99025.06;;;11.22;100.00
45763;BME280;37512;52.408;13.356;2022-09-27T14:30:29;99019.81;;;11.69;100.00
45763;BME280;37512;52.408;13.356;2022-09-27T14:34:30;99024.44;;;11.45;100.00
45763;BME280;37512;52.408;13.356;2022-09-27T14:38:32;99034.56;;;11.63;100.00
45763;BME280;37512;52.408;13.356;2022-09-27T14:42:38;99035.63;;;11.38;100.00
45763;BME280;37512;52.408;13.356;2022-09-27T14:46:40;99047.31;;;11.15;100.00
45763;BME280;37512;52.408;13.356;2022-09-27T14:50:58;99050.75;;;11.34;100.00
45763;BME280;37512;52.408;13.356;2022-09-27T14:55:13;99041.81;;;11.08;100.00
45763;BME280;37512;52.408;13.356;2022-09-27T14:59:23;99053.88;;;11.39;100.00
45763;BME280;37512;52.408;13.356;2022-09-27T15:03:29;99047.31;;;11.60;100.00
45763;BME280;37512;52.408;13.356;2022-09-27T15:07:40;99053.34;;;11.51;100.00
45763;BME280;37512;52.408;13.356;2022-09-27T15:11:43;99066.28;;;11.27;100.00
45763;BME280;37512;52.408;13.356;2022-09-27T15:15:46;99067.97;;;11.10;100.00
45763;BME280;37512;52.408;13.356;2022-09-27T15:20:00;99069.59;;;11.08;100.00
45763;BME280;37512;52.408;13.356;2022-09-27T15:24:02;99070.53;;;10.91;100.00
45763;BME280;37512;52.408;13.356;2022-09-27T15:28:15;99072.97;;;10.78;100.00
45763;BME280;37512;52.408;13.356;2022-09-27T15:32:23;99082.09;;;10.78;100.00
45763;BME280;37512;52.408;13.356;2022-09-27T15:36:48;99079.81;;;10.66;100.00
45763;BME280;37512;52.408;13.356;2022-09-27T15:44:54;99077.38;;;10.75;100.00
45763;BME280;37512;52.408;13.356;2022-09-27T15:49:29;99094.09;;;10.57;100.00
45763;BME280;37512;52.408;13.356;2022-09-27T15:57:35;99079.06;;;10.51;100.00
45763;BME280;37512;52.408;13.356;2022-09-27T16:01:37;99096.75;;;10.82;100.00
45763;BME280;37512;52.408;13.356;2022-09-27T16:05:38;99100.91;;;10.49;100.00
45763;BME280;37512;52.408;13.356;2022-09-27T16:09:44;99113.16;;;10.55;100.00
45763;BME280;37512;52.408;13.356;2022-09-27T16:13:46;99108.72;;;10.65;100.00
45763;BME280;37512;52.408;13.356;2022-09-27T16:17:50;99107.78;;;10.93;100.00
45763;BME280;37512;52.408;13.356;2022-09-27T16:21:51;99102.34;;;10.79;100.00
45763;BME280;37512;52.408;13.356;2022-09-27T16:25:53;99116.25;;;10.64;100.00
45763;BME280;37512;52.408;13.356;2022-09-27T16:29:54;99118.50;;;10.91;100.00
45763;BME280;37512;52.408;13.356;2022-09-27T16:33:58;99121.75;;;10.75;100.00
45763;BME280;37512;52.408;13.356;2022-09-27T16:38:00;99119.81;;;10.68;100.00
45763;BME280;37512;52.408;13.356;2022-09-27T16:42:02;99115.00;;;10.80;100.00
45763;BME280;37512;52.408;13.356;2022-09-27T16:46:07;99118.16;;;10.82;100.00
45763;BME280;37512;52.408;13.356;2022-09-27T16:50:13;99113.44;;;10.75;100.00
45763;BME280;37512;52.408;13.356;2022-09-27T16:54:33;99120.56;;;10.76;100.00
45763;BME280;37512;52.408;13.356;2022-09-27T16:58:34;99126.91;;;10.77;100.00
45763;BME280;37512;52.408;13.356;2022-09-27T17:02:37;99128.53;;;10.67;100.00
45763;BME280;37512;52.408;13.356;2022-09-27T17:06:38;99130.22;;;10.50;100.00
45763;BME280;37512;52.408;13.356;2022-09-27T17:10:43;99139.34;;;10.43;100.00
45763;BME280;37512;52.408;13.356;2022-09-27T17:14:45;99139.41;;;10.29;100.00
45763;BME280;37512;52.408;13.356;2022-09-27T17:18:46;99144.13;;;10.21;100.00
45763;BME280;37512;52.408;13.356;2022-09-27T17:22:48;99141.75;;;10.31;100.00
45763;BME280;37512;52.408;13.356;2022-09-27T17:26:49;99151.69;;;10.32;100.00
45763;BME280;37512;52.408;13.356;2022-09-27T17:30:51;99146.09;;;10.39;100.00
45763;BME280;37512;52.408;13.356;2022-09-27T17:34:53;99148.91;;;10.32;100.00
45763;BME280;37512;52.408;13.356;2022-09-27T17:38:57;99141.41;;;10.14;100.00
45763;BME280;37512;52.408;13.356;2022-09-27T17:42:59;99158.41;;;10.27;100.00
45763;BME280;37512;52.408;13.356;2022-09-27T17:47:01;99159.25;;;10.06;100.00
45763;BME280;37512;52.408;13.356;2022-09-27T17:51:22;99167.19;;;9.97;100.00
45763;BME280;37512;52.408;13.356;2022-09-27T17:55:24;99166.78;;;9.80;100.00
45763;BME280;37512;52.408;13.356;2022-09-27T17:59:26;99167.56;;;9.99;100.00
45763;BME280;37512;52.408;13.356;2022-09-27T18:03:27;99173.53;;;9.83;100.00
45763;BME280;37512;52.408;13.356;2022-09-27T18:07:29;99166.81;;;9.73;100.00
45763;BME280;37512;52.408;13.356;2022-09-27T18:11:30;99173.91;;;9.89;100.00
45763;BME280;37512;52.408;13.356;2022-09-27T18:15:33;99186.19;;;9.84;100.00
45763;BME280;37512;52.408;13.356;2022-09-27T18:19:37;99188.19;;;9.83;100.00
45763;BME280;37512;52.408;13.356;2022-09-27T18:23:40;99186.22;;;9.66;100.00
45763;BME280;37512;52.408;13.356;2022-09-27T18:27:42;99196.09;;;9.42;100.00
45763;BME280;37512;52.408;13.356;2022-09-27T18:31:44;99200.03;;;9.41;100.00
45763;BME280;37512;52.408;13.356;2022-09-27T18:35:49;99196.84;;;9.21;100.00
45763;BME280;37512;52.408;13.356;2022-09-27T18:39:50;99198.44;;;9.15;100.00
45763;BME280;37512;52.408;13.356;2022-09-27T18:43:54;99196.84;;;9.17;100.00
45763;BME280;37512;52.408;13.356;2022-09-27T18:47:57;99206.69;;;9.04;100.00
45763;BME280;37512;52.408;13.356;2022-09-27T18:51:58;99207.50;;;9.05;100.00
45763;BME280;37512;52.408;13.356;2022-09-27T18:56:08;99208.66;;;8.96;100.00
45763;BME280;37512;52.408;13.356;2022-09-27T19:00:11;99212.19;;;8.83;100.00
45763;BME280;37512;52.408;13.356;2022-09-27T19:04:18;99211.78;;;8.84;100.00
45763;BME280;37512;52.408;13.356;2022-09-27T19:08:25;99210.94;;;8.73;100.00
45763;BME280;37512;52.408;13.356;2022-09-27T19:12:26;99214.91;;;8.75;100.00
45763;BME280;37512;52.408;13.356;2022-09-27T19:16:28;99219.56;;;8.53;100.00
45763;BME280;37512;52.408;13.356;2022-09-27T19:20:32;99217.19;;;8.52;100.00
45763;BME280;37512;52.408;13.356;2022-09-27T19:24:33;99219.91;;;8.45;100.00
45763;BME280;37512;52.408;13.356;2022-09-27T19:28:36;99225.84;;;8.50;100.00
45763;BME280;37512;52.408;13.356;2022-09-27T19:32:38;99223.31;;;8.24;100.00
45763;BME280;37512;52.408;13.356;2022-09-27T19:36:40;99226.59;;;8.40;100.00
45763;BME280;37512;52.408;13.356;2022-09-27T19:40:41;99221.47;;;8.46;100.00
45763;BME280;37512;52.408;13.356;2022-09-27T19:44:42;99223.00;;;8.40;100.00
45763;BME280;37512;52.408;13.356;2022-09-27T19:48:45;99227.00;;;8.42;100.00
45763;BME280;37512;52.408;13.356;2022-09-27T19:52:49;99225.72;;;8.32;100.00
45763;BME280;37512;52.408;13.356;2022-09-27T19:56:51;99221.69;;;8.15;100.00
45763;BME280;37512;52.408;13.356;2022-09-27T20:05:06;99219.28;;;8.14;100.00
45763;BME280;37512;52.408;13.356;2022-09-27T20:09:08;99216.72;;;7.84;100.00
45763;BME280;37512;52.408;13.356;2022-09-27T20:13:10;99222.25;;;7.84;100.00
45763;BME280;37512;52.408;13.356;2022-09-27T20:17:11;99227.16;;;8.08;100.00
45763;BME280;37512;52.408;13.356;2022-09-27T20:21:14;99224.72;;;7.96;100.00
45763;BME280;37512;52.408;13.356;2022-09-27T20:25:16;99218.38;;;7.92;100.00
45763;BME280;37512;52.408;13.356;2022-09-27T20:29:17;99224.78;;;8.07;100.00
45763;BME280;37512;52.408;13.356;2022-09-27T20:33:18;99214.50;;;8.07;100.00
45763;BME280;37512;52.408;13.356;2022-09-27T20:37:38;99219.19;;;7.96;100.00
45763;BME280;37512;52.408;13.356;2022-09-27T20:41:42;99216.38;;;7.92;100.00
45763;BME280;37512;52.408;13.356;2022-09-27T20:45:44;99223.88;;;7.92;100.00
45763;BME280;37512;52.408;13.356;2022-09-27T20:49:45;99218.28;;;7.81;100.00
45763;BME280;37512;52.408;13.356;2022-09-27T20:53:47;99231.78;;;7.93;100.00
45763;BME280;37512;52.408;13.356;2022-09-27T20:57:51;99229.31;;;7.81;100.00
45763;BME280;37512;52.408;13.356;2022-09-27T21:01:58;99233.22;;;7.77;100.00
45763;BME280;37512;52.408;13.356;2022-09-27T21:05:59;99230.13;;;7.82;100.00
45763;BME280;37512;52.408;13.356;2022-09-27T21:10:01;99234.75;;;7.70;100.00
45763;BME280;37512;52.408;13.356;2022-09-27T21:14:02;99231.31;;;7.84;100.00
45763;BME280;37512;52.408;13.356;2022-09-27T21:18:04;99224.63;;;7.89;100.00
45763;BME280;37512;52.408;13.356;2022-09-27T21:22:05;99236.41;;;7.82;100.00
45763;BME280;37512;52.408;13.356;2022-09-27T21:26:09;99241.16;;;7.82;100.00
45763;BME280;37512;52.408;13.356;2022-09-27T21:30:12;99239.13;;;7.71;100.00
45763;BME280;37512;52.408;13.356;2022-09-27T21:34:13;99239.47;;;7.66;100.00
45763;BME280;37512;52.408;13.356;2022-09-27T21:38:15;99243.59;;;7.42;100.00
45763;BME280;37512;52.408;13.356;2022-09-27T21:42:16;99254.13;;;7.33;100.00
45763;BME280;37512;52.408;13.356;2022-09-27T21:46:20;99248.31;;;7.42;100.00
45763;BME280;37512;52.408;13.356;2022-09-27T21:50:23;99251.03;;;7.38;100.00
45763;BME280;37512;52.408;13.356;2022-09-27T21:54:25;99239.81;;;7.20;100.00
45763;BME280;37512;52.408;13.356;2022-09-27T21:58:26;99241.16;;;7.37;100.00
45763;BME280;37512;52.408;13.356;2022-09-27T22:02:28;99249.34;;;7.26;100.00
45763;BME280;37512;52.408;13.356;2022-09-27T22:06:32;99244.75;;;7.04;100.00
45763;BME280;37512;52.408;13.356;2022-09-27T22:10:34;99240.38;;;6.99;100.00
45763;BME280;37512;52.408;13.356;2022-09-27T22:14:35;99245.03;;;6.95;100.00
45763;BME280;37512;52.408;13.356;2022-09-27T22:18:37;99241.56;;;6.98;100.00
45763;BME280;37512;52.408;13.356;2022-09-27T22:22:39;99241.44;;;6.91;100.00
45763;BME280;37512;52.408;13.356;2022-09-27T22:26:43;99242.84;;;7.08;100.00
45763;BME280;37512;52.408;13.356;2022-09-27T22:30:45;99240.28;;;7.29;100.00
45763;BME280;37512;52.408;13.356;2022-09-27T22:34:46;99235.13;;;7.24;100.00
45763;BME280;37512;52.408;13.356;2022-09-27T22:38:50;99234.34;;;7.27;100.00
45763;BME280;37512;52.408;13.356;2022-09-27T22:42:52;99243.41;;;7.24;100.00
45763;BME280;37512;52.408;13.356;2022-09-27T22:46:53;99240.84;;;7.05;100.00
45763;BME280;37512;52.408;13.356;2022-09-27T22:50:56;99241.34;;;7.18;100.00
45763;BME280;37512;52.408;13.356;2022-09-27T22:54:58;99250.19;;;6.97;100.00
45763;BME280;37512;52.408;13.356;2022-09-27T22:58:59;99241.34;;;6.80;100.00
45763;BME280;37512;52.408;13.356;2022-09-27T23:03:01;99235.13;;;6.90;100.00
45763;BME280;37512;52.408;13.356;2022-09-27T23:07:02;99233.28;;;7.02;100.00
45763;BME280;37512;52.408;13.356;2022-09-27T23:11:05;99229.69;;;6.98;100.00
45763;BME280;37512;52.408;13.356;2022-09-27T23:15:08;99235.31;;;7.05;100.00
45763;BME280;37512;52.408;13.356;2022-09-27T23:19:09;99233.72;;;7.04;100.00
45763;BME280;37512;52.408;13.356;2022-09-27T23:23:14;99227.00;;;7.01;100.00
45763;BME280;37512;52.408;13.356;2022-09-27T23:27:15;99227.06;;;7.08;100.00
45763;BME280;37512;52.408;13.356;2022-09-27T23:31:35;99227.13;;;7.16;100.00
45763;BME280;37512;52.408;13.356;2022-09-27T23:35:38;99238.94;;;7.12;100.00
45763;BME280;37512;52.408;13.356;2022-09-27T23:39:39;99232.94;;;7.03;100.00